createdAt,value
2019-01-25T00:01:58.006Z,56.97
2019-01-25T00:04:24.005Z,67.00
2019-01-25T00:06:50.005Z,62.40
2019-01-25T00:09:16.144Z,66.18
2019-01-25T00:11:42.166Z,65.45
2019-01-25T00:14:08.172Z,50.97
2019-01-25T00:16:34.922Z,57.97
2019-01-25T00:19:00.947Z,55.63
2019-01-25T00:21:26.947Z,63.33
2019-01-25T00:23:53.003Z,61.17
2019-01-25T00:26:18.966Z,68.72
2019-01-25T00:28:44.982Z,63.83
2019-01-25T00:31:10.982Z,62.75
2019-01-25T00:33:36.963Z,57.65
2019-01-25T00:36:02.963Z,59.27
2019-01-25T00:38:28.946Z,63.10
2019-01-25T00:40:54.955Z,61.17
2019-01-25T00:43:20.961Z,62.62
2019-01-25T00:45:47.729Z,57.75
2019-01-25T00:48:14.450Z,61.72
2019-01-25T00:50:41.218Z,63.13
2019-01-25T00:53:07.227Z,58.75
2019-01-25T00:55:33.242Z,61.10
2019-01-25T00:57:59.342Z,58.70
2019-01-25T01:00:25.336Z,70.53
2019-01-25T01:02:51.326Z,60.22
2019-01-25T01:05:17.384Z,60.20
2019-01-25T01:07:43.386Z,61.15
2019-01-25T01:10:13.990Z,62.03
2019-01-25T01:12:35.433Z,60.33
2019-01-25T01:15:01.524Z,59.95
2019-01-25T01:17:27.542Z,60.65
2019-01-25T01:19:54.262Z,68.22
2019-01-25T01:22:20.266Z,60.10
2019-01-25T01:24:46.281Z,69.93
2019-01-25T01:27:12.321Z,66.78
2019-01-25T01:29:38.319Z,61.70
2019-01-25T01:32:04.319Z,68.40
2019-01-25T01:34:30.353Z,58.87
2019-01-25T01:36:56.386Z,63.30
2019-01-25T01:39:22.364Z,66.55
2019-01-25T01:41:48.367Z,67.07
2019-01-25T01:44:14.366Z,62.47
2019-01-25T01:46:40.387Z,61.05
2019-01-25T01:49:06.403Z,62.72
2019-01-25T01:51:32.394Z,66.78
2019-01-25T01:53:59.143Z,59.90
2019-01-25T01:56:25.877Z,60.00
2019-01-25T01:58:52.609Z,71.37
2019-01-25T02:01:18.641Z,63.78
2019-01-25T02:03:45.387Z,65.12
2019-01-25T02:06:11.387Z,68.07
2019-01-25T02:08:37.399Z,68.17
2019-01-25T02:11:03.394Z,69.68
2019-01-25T02:13:29.386Z,61.55
2019-01-25T02:15:56.138Z,65.40
2019-01-25T02:18:22.130Z,62.20
2019-01-25T02:20:48.155Z,60.03
2019-01-25T02:23:14.141Z,64.35
2019-01-25T02:25:40.130Z,61.33
2019-01-25T02:28:06.137Z,60.13
2019-01-25T02:30:32.854Z,61.40
2019-01-25T02:32:58.830Z,67.47
2019-01-25T02:35:24.839Z,65.43
2019-01-25T02:37:50.811Z,71.30
2019-01-25T02:40:16.812Z,68.43
2019-01-25T02:42:42.819Z,60.25
2019-01-25T02:45:18.874Z,57.15
2019-01-25T02:47:44.897Z,68.12
2019-01-25T02:50:13.863Z,64.60
2019-01-25T02:52:40.617Z,58.78
2019-01-25T02:55:06.615Z,64.50
2019-01-25T02:57:32.631Z,64.45
2019-01-25T02:59:58.639Z,62.85
2019-01-25T03:02:24.634Z,65.37
2019-01-25T03:04:50.647Z,62.55
2019-01-25T03:07:16.630Z,65.40
2019-01-25T03:09:42.615Z,63.73
2019-01-25T03:12:09.705Z,65.87
2019-01-25T03:14:35.705Z,63.10
2019-01-25T03:17:01.695Z,66.18
2019-01-25T03:19:27.725Z,60.50
2019-01-25T03:21:53.700Z,54.63
2019-01-25T03:24:19.688Z,62.17
2019-01-25T03:26:45.699Z,61.07
2019-01-25T03:29:11.681Z,60.33
2019-01-25T03:31:38.442Z,57.70
2019-01-25T03:34:04.446Z,61.60
2019-01-25T03:36:31.188Z,63.58
2019-01-25T03:38:57.922Z,62.22
2019-01-25T03:41:24.640Z,59.50
2019-01-25T03:43:57.855Z,59.83
2019-01-25T03:46:24.611Z,65.15
2019-01-25T03:48:51.328Z,61.17
2019-01-25T03:51:17.337Z,62.83
2019-01-25T03:53:43.314Z,67.75
2019-01-25T03:56:09.332Z,58.90
2019-01-25T03:58:35.334Z,65.28
2019-01-25T04:01:02.115Z,60.60
2019-01-25T04:03:28.103Z,59.88
2019-01-25T04:05:54.120Z,61.53
2019-01-25T04:08:20.891Z,63.87
2019-01-25T04:10:46.907Z,56.08
2019-01-25T04:13:12.903Z,56.15
2019-01-25T04:15:38.923Z,56.70
2019-01-25T04:18:04.930Z,59.42
2019-01-25T04:20:30.923Z,57.05
2019-01-25T04:22:56.906Z,61.40
2019-01-25T04:25:23.640Z,60.67
2019-01-25T04:27:49.694Z,59.63
2019-01-25T04:30:16.583Z,53.80
2019-01-25T04:32:42.611Z,61.25
2019-01-25T04:35:08.651Z,55.10
2019-01-25T04:37:34.635Z,62.55
2019-01-25T04:40:00.651Z,60.63
2019-01-25T04:42:26.649Z,58.83
2019-01-25T04:44:52.712Z,63.15
2019-01-25T04:47:18.724Z,61.45
2019-01-25T04:49:44.716Z,67.70
2019-01-25T04:52:10.715Z,63.10
2019-01-25T04:54:36.716Z,62.40
2019-01-25T04:57:02.751Z,56.30
2019-01-25T04:59:28.735Z,86.70
2019-01-25T05:01:54.773Z,91.27
2019-01-25T05:04:20.776Z,74.62
2019-01-25T05:06:46.794Z,65.15
2019-01-25T05:09:12.791Z,57.40
2019-01-25T05:11:39.538Z,66.43
2019-01-25T05:14:05.558Z,66.00
2019-01-25T05:16:31.537Z,65.15
2019-01-25T05:18:57.541Z,63.17
2019-01-25T05:21:23.543Z,63.30
2019-01-25T05:23:49.539Z,62.50
2019-01-25T05:26:16.265Z,59.28
2019-01-25T05:28:42.258Z,60.97
2019-01-25T05:31:08.256Z,65.30
2019-01-25T05:33:34.252Z,58.80
2019-01-25T05:36:00.970Z,57.35
2019-01-25T05:38:26.984Z,56.85
2019-01-25T05:40:52.974Z,65.00
2019-01-25T05:43:18.964Z,61.40
2019-01-25T05:45:45.738Z,71.97
2019-01-25T05:48:11.735Z,68.72
2019-01-25T05:50:38.475Z,63.90
2019-01-25T05:53:04.516Z,64.05
2019-01-25T05:55:30.500Z,61.37
2019-01-25T05:57:57.431Z,59.80
2019-01-25T06:00:24.282Z,59.58
2019-01-25T06:02:50.279Z,58.25
2019-01-25T06:05:16.258Z,61.47
2019-01-25T06:07:44.088Z,87.50
2019-01-25T06:10:09.035Z,68.43
2019-01-25T06:12:35.015Z,59.05
2019-01-25T06:15:00.998Z,65.17
2019-01-25T06:17:27.007Z,60.63
2019-01-25T06:19:52.987Z,96.07
2019-01-25T06:22:18.994Z,72.67
2019-01-25T06:24:45.025Z,75.30
2019-01-25T06:27:11.095Z,67.62
2019-01-25T06:29:37.098Z,71.07
2019-01-25T06:32:03.844Z,69.75
2019-01-25T06:34:30.590Z,65.37
2019-01-25T06:36:57.315Z,65.43
2019-01-25T06:39:23.334Z,60.83
2019-01-25T06:41:49.349Z,67.40
2019-01-25T06:44:15.335Z,63.45
2019-01-25T06:46:41.434Z,56.37
2019-01-25T06:49:07.449Z,66.43
2019-01-25T06:51:34.179Z,67.68
2019-01-25T06:54:00.167Z,59.78
2019-01-25T06:56:26.188Z,71.55
2019-01-25T06:58:52.217Z,69.35
2019-01-25T07:01:21.056Z,73.12
2019-01-25T07:03:47.798Z,71.35
2019-01-25T07:06:13.799Z,70.30
2019-01-25T07:08:39.822Z,66.95
2019-01-25T07:11:06.571Z,67.55
2019-01-25T07:13:32.560Z,75.97
2019-01-25T07:15:58.554Z,69.68
2019-01-25T07:18:24.562Z,68.72
2019-01-25T07:20:50.554Z,63.53
2019-01-25T07:23:16.539Z,71.43
2019-01-25T07:25:42.542Z,67.07
2019-01-25T07:28:08.536Z,68.55
2019-01-25T07:30:35.283Z,65.97
2019-01-25T07:33:02.016Z,57.45
2019-01-25T07:35:28.173Z,68.65
2019-01-25T07:37:54.771Z,63.67
2019-01-25T07:40:20.772Z,68.25
2019-01-25T07:42:46.771Z,68.95
2019-01-25T07:45:12.785Z,65.95
2019-01-25T07:47:38.821Z,67.50
2019-01-25T07:50:04.788Z,104.75
2019-01-25T07:52:31.539Z,129.18
2019-01-25T07:54:58.273Z,98.62
2019-01-25T07:57:24.296Z,87.70
2019-01-25T07:59:50.294Z,78.90
2019-01-25T08:02:16.298Z,72.72
2019-01-25T08:04:42.321Z,67.57
2019-01-25T08:07:08.318Z,71.37
2019-01-25T08:09:34.347Z,67.47
2019-01-25T08:12:07.241Z,79.22
2019-01-25T08:14:27.826Z,69.60
2019-01-25T08:16:53.821Z,63.25
2019-01-25T08:19:20.653Z,64.32
2019-01-25T08:21:46.564Z,64.50
2019-01-25T08:24:12.567Z,71.87
2019-01-25T08:26:45.613Z,73.55
2019-01-25T08:29:12.415Z,70.00
2019-01-25T08:31:38.404Z,63.45
2019-01-25T08:34:04.453Z,62.13
2019-01-25T08:36:30.418Z,67.97
2019-01-25T08:38:57.151Z,72.60
2019-01-25T08:41:23.915Z,68.65
2019-01-25T08:43:49.945Z,73.10
2019-01-25T08:46:16.653Z,67.53
2019-01-25T08:48:42.668Z,66.68
2019-01-25T08:51:08.659Z,75.03
2019-01-25T08:53:34.740Z,68.37
2019-01-25T08:56:00.679Z,72.18
2019-01-25T08:58:26.677Z,75.82
2019-01-25T09:00:53.461Z,74.82
2019-01-25T09:03:19.457Z,79.30
2019-01-25T09:05:46.202Z,75.40
2019-01-25T09:08:12.203Z,78.53
2019-01-25T09:10:38.219Z,73.97
2019-01-25T09:13:04.235Z,78.62
2019-01-25T09:15:30.270Z,73.68
2019-01-25T09:17:56.297Z,71.50
2019-01-25T09:20:22.266Z,72.80
2019-01-25T09:22:48.233Z,75.50
2019-01-25T09:25:14.260Z,78.37
2019-01-25T09:27:40.258Z,70.97
2019-01-25T09:30:09.230Z,70.80
2019-01-25T09:32:35.242Z,74.45
2019-01-25T09:35:01.264Z,75.73
2019-01-25T09:37:27.354Z,75.47
2019-01-25T09:39:53.346Z,74.23
2019-01-25T09:42:19.382Z,70.10
2019-01-25T09:44:45.459Z,69.75
2019-01-25T09:47:11.574Z,74.95
2019-01-25T09:49:37.558Z,80.20
2019-01-25T09:52:03.530Z,73.60
2019-01-25T09:54:36.407Z,76.80
2019-01-25T09:57:02.409Z,70.62
2019-01-25T09:59:29.182Z,73.87
2019-01-25T10:01:55.203Z,75.45
2019-01-25T10:04:21.208Z,78.75
2019-01-25T10:06:47.920Z,80.50
2019-01-25T10:09:13.939Z,73.60
2019-01-25T10:11:39.946Z,81.50
2019-01-25T10:14:05.967Z,70.57
2019-01-25T10:16:31.966Z,77.78
2019-01-25T10:18:57.959Z,72.93
2019-01-25T10:21:24.719Z,75.70
2019-01-25T10:23:50.707Z,80.93
2019-01-25T10:26:16.710Z,79.57
2019-01-25T10:28:42.702Z,76.00
2019-01-25T10:31:08.730Z,76.80
2019-01-25T10:33:34.752Z,86.22
2019-01-25T10:36:00.791Z,78.45
2019-01-25T10:38:26.806Z,80.05
2019-01-25T10:40:52.806Z,78.90
2019-01-25T10:43:19.172Z,75.90
2019-01-25T10:45:45.163Z,78.68
2019-01-25T10:48:11.199Z,85.62
2019-01-25T10:50:37.215Z,78.75
2019-01-25T10:53:03.282Z,77.18
2019-01-25T10:55:29.295Z,79.12
2019-01-25T10:57:55.294Z,73.65
2019-01-25T11:00:21.305Z,83.20
2019-01-25T11:02:47.298Z,73.43
2019-01-25T11:05:13.318Z,73.30
2019-01-25T11:07:39.326Z,75.35
2019-01-25T11:10:05.347Z,71.55
2019-01-25T11:12:31.360Z,83.05
2019-01-25T11:14:57.378Z,75.18
2019-01-25T11:17:23.392Z,78.20
2019-01-25T11:19:49.383Z,76.07
2019-01-25T11:22:15.406Z,74.43
2019-01-25T11:24:41.414Z,68.35
2019-01-25T11:27:08.162Z,79.80
2019-01-25T11:29:34.910Z,71.30
2019-01-25T11:32:01.642Z,70.35
2019-01-25T11:34:33.033Z,68.18
2019-01-25T11:36:54.417Z,79.25
2019-01-25T11:39:20.424Z,69.22
2019-01-25T11:41:46.439Z,84.90
2019-01-25T11:44:12.446Z,67.70
2019-01-25T11:46:38.465Z,81.70
2019-01-25T11:49:04.471Z,72.45
2019-01-25T11:51:30.488Z,73.20
2019-01-25T11:53:56.502Z,73.97
2019-01-25T11:56:37.458Z,77.00
2019-01-25T11:59:04.270Z,75.72
2019-01-25T12:01:30.286Z,74.68
2019-01-25T12:03:56.320Z,72.12
2019-01-25T12:06:22.367Z,74.07
2019-01-25T12:08:49.131Z,74.07
2019-01-25T12:11:15.189Z,83.07
2019-01-25T12:13:41.207Z,72.70
2019-01-25T12:16:07.219Z,73.12
2019-01-25T12:18:33.276Z,74.18
2019-01-25T12:20:59.234Z,76.10
2019-01-25T12:23:25.971Z,80.10
2019-01-25T12:25:52.712Z,73.43
2019-01-25T12:28:19.468Z,76.55
2019-01-25T12:30:45.538Z,70.35
2019-01-25T12:33:11.536Z,73.32
2019-01-25T12:35:37.538Z,72.33
2019-01-25T12:38:03.527Z,72.75
2019-01-25T12:40:29.528Z,73.50
2019-01-25T12:42:55.528Z,73.60
2019-01-25T12:45:21.560Z,74.85
2019-01-25T12:47:47.566Z,73.80
2019-01-25T12:50:14.536Z,79.97
2019-01-25T12:52:40.827Z,79.78
2019-01-25T12:55:08.863Z,69.62
2019-01-25T12:57:35.654Z,84.05
2019-01-25T13:00:01.679Z,74.82
2019-01-25T13:02:27.968Z,72.57
2019-01-25T13:04:54.022Z,69.15
2019-01-25T13:07:20.032Z,77.97
2019-01-25T13:09:46.087Z,76.75
2019-01-25T13:12:12.137Z,71.87
2019-01-25T13:14:38.142Z,73.05
2019-01-25T13:17:04.162Z,72.95
2019-01-25T13:19:30.184Z,73.18
2019-01-25T13:21:56.178Z,73.90
2019-01-25T13:24:22.926Z,72.37
2019-01-25T13:26:49.788Z,70.72
2019-01-25T13:29:15.887Z,72.90
2019-01-25T13:31:41.950Z,78.28
2019-01-25T13:34:07.965Z,75.12
2019-01-25T13:36:34.001Z,74.97
2019-01-25T13:39:00.087Z,76.35
2019-01-25T13:41:27.512Z,73.82
2019-01-25T13:43:52.854Z,68.18
2019-01-25T13:46:19.606Z,73.57
2019-01-25T13:48:46.342Z,66.20
2019-01-25T13:51:12.355Z,67.07
2019-01-25T13:53:39.137Z,69.68
2019-01-25T13:56:05.138Z,71.35
2019-01-25T13:58:31.891Z,66.83
2019-01-25T14:00:57.885Z,70.20
2019-01-25T14:03:23.882Z,65.23
2019-01-25T14:05:49.874Z,76.53
2019-01-25T14:08:15.882Z,72.40
2019-01-25T14:10:41.885Z,66.57
2019-01-25T14:13:08.627Z,68.30
2019-01-25T14:15:35.374Z,66.82
2019-01-25T14:18:02.143Z,67.62
2019-01-25T14:20:29.134Z,66.30
2019-01-25T14:22:55.886Z,65.05
2019-01-25T14:25:22.623Z,65.43
2019-01-25T14:27:49.376Z,75.28
2019-01-25T14:30:37.498Z,71.95
2019-01-25T14:33:03.511Z,64.03
2019-01-25T14:35:29.526Z,64.87
2019-01-25T14:37:55.543Z,65.53
2019-01-25T14:40:21.523Z,64.62
2019-01-25T14:42:48.270Z,64.30
2019-01-25T14:45:15.139Z,65.12
2019-01-25T14:47:41.145Z,65.15
2019-01-25T14:50:07.150Z,58.28
2019-01-25T14:52:33.154Z,64.43
2019-01-25T14:54:59.911Z,54.25
2019-01-25T14:57:25.909Z,56.65
2019-01-25T14:59:51.904Z,65.63
2019-01-25T15:02:17.910Z,57.77
2019-01-25T15:04:43.938Z,53.77
2019-01-25T15:07:09.933Z,54.67
2019-01-25T15:09:38.107Z,60.50
2019-01-25T15:12:02.687Z,54.60
2019-01-25T15:14:28.682Z,54.43
2019-01-25T15:17:01.590Z,52.53
2019-01-25T15:19:27.605Z,57.47
2019-01-25T15:21:53.583Z,54.15
2019-01-25T15:24:19.598Z,57.73
2019-01-25T15:26:45.702Z,51.90
2019-01-25T15:29:12.464Z,53.45
2019-01-25T15:31:38.467Z,51.75
2019-01-25T15:34:05.225Z,53.78
2019-01-25T15:36:31.235Z,48.33
2019-01-25T15:38:57.223Z,45.15
2019-01-25T15:41:23.205Z,47.40
2019-01-25T15:43:49.197Z,42.53
2019-01-25T15:46:16.174Z,46.27
2019-01-25T15:48:42.189Z,45.70
2019-01-25T15:51:08.196Z,39.03
2019-01-25T15:53:34.175Z,46.20
2019-01-25T15:56:00.143Z,42.83
2019-01-25T15:58:26.143Z,43.30
2019-01-25T16:00:52.129Z,40.50
2019-01-25T16:03:18.130Z,40.80
2019-01-25T16:05:44.138Z,41.15
2019-01-25T16:08:10.165Z,40.47
2019-01-25T16:10:36.149Z,42.58
2019-01-25T16:13:02.162Z,39.17
2019-01-25T16:15:28.323Z,42.83
2019-01-25T16:17:54.163Z,36.40
2019-01-25T16:20:20.166Z,37.92
2019-01-25T16:22:46.209Z,39.97
2019-01-25T16:25:16.107Z,39.35
2019-01-25T16:27:42.076Z,32.28
2019-01-25T16:30:08.902Z,37.73
2019-01-25T16:32:34.895Z,33.05
2019-01-25T16:35:00.875Z,34.13
2019-01-25T16:37:26.871Z,26.97
2019-01-25T16:39:52.855Z,31.73
2019-01-25T16:42:18.879Z,26.20
2019-01-25T16:44:44.872Z,27.73
2019-01-25T16:47:10.879Z,26.73
2019-01-25T16:49:36.899Z,26.80
2019-01-25T16:52:05.494Z,26.73
2019-01-25T16:54:32.014Z,30.67
2019-01-25T16:56:58.048Z,28.90
2019-01-25T16:59:24.048Z,30.00
2019-01-25T17:01:50.140Z,26.67
2019-01-25T17:04:16.172Z,30.80
2019-01-25T17:06:42.162Z,34.33
2019-01-25T17:09:08.195Z,36.10
2019-01-25T17:11:34.215Z,32.88
2019-01-25T17:14:00.223Z,30.62
2019-01-25T17:16:26.239Z,31.62
2019-01-25T17:18:52.231Z,31.37
2019-01-25T17:21:18.242Z,31.97
2019-01-25T17:23:44.248Z,36.53
2019-01-25T17:26:10.232Z,32.50
2019-01-25T17:28:36.229Z,35.83
2019-01-25T17:31:02.238Z,34.00
2019-01-25T17:33:28.243Z,33.28
2019-01-25T17:35:54.227Z,32.90
2019-01-25T17:38:20.239Z,30.80
2019-01-25T17:40:47.130Z,36.67
2019-01-25T17:43:12.315Z,35.20
2019-01-25T17:45:38.534Z,28.98
2019-01-25T17:48:04.890Z,35.05
2019-01-25T17:50:31.045Z,34.13
2019-01-25T17:52:57.969Z,32.78
2019-01-25T17:55:24.981Z,40.00
2019-01-25T17:57:51.151Z,39.45
2019-01-25T18:00:20.204Z,39.50
2019-01-25T18:02:46.297Z,45.55
2019-01-25T18:05:12.318Z,40.83
2019-01-25T18:07:38.307Z,50.17
2019-01-25T18:10:06.170Z,46.47
2019-01-25T18:12:32.216Z,41.53
2019-01-25T18:14:58.222Z,45.12
2019-01-25T18:17:24.231Z,46.95
2019-01-25T18:19:50.206Z,44.90
2019-01-25T18:22:16.198Z,42.80
2019-01-25T18:24:42.214Z,48.63
2019-01-25T18:27:08.191Z,41.20
2019-01-25T18:29:34.211Z,54.30
2019-01-25T18:32:00.225Z,49.85
2019-01-25T18:34:26.201Z,47.90
2019-01-25T18:36:52.274Z,52.70
2019-01-25T18:39:18.278Z,43.90
2019-01-25T18:41:44.275Z,47.70
2019-01-25T18:44:10.278Z,45.57
2019-01-25T18:46:36.267Z,47.22
2019-01-25T18:49:02.323Z,41.30
2019-01-25T18:51:28.347Z,47.03
2019-01-25T18:53:54.331Z,50.08
2019-01-25T18:56:20.314Z,54.97
2019-01-25T18:58:46.323Z,42.37
2019-01-25T19:01:12.314Z,47.05
2019-01-25T19:03:38.299Z,51.00
2019-01-25T19:06:05.062Z,50.50
2019-01-25T19:08:31.047Z,43.00
2019-01-25T19:10:57.083Z,44.67
2019-01-25T19:13:23.093Z,44.60
2019-01-25T19:15:49.076Z,47.30
2019-01-25T19:18:15.054Z,44.97
2019-01-25T19:20:41.122Z,47.73
2019-01-25T19:23:07.142Z,51.63
2019-01-25T19:25:33.127Z,46.20
2019-01-25T19:27:59.227Z,53.03
2019-01-25T19:30:26.191Z,46.42
2019-01-25T19:32:52.187Z,42.08
2019-01-25T19:35:18.392Z,39.70
2019-01-25T19:37:44.503Z,47.58
2019-01-25T19:40:11.404Z,47.47
2019-01-25T19:42:37.422Z,50.75
2019-01-25T19:45:03.455Z,43.15
2019-01-25T19:47:29.446Z,40.88
2019-01-25T19:49:55.452Z,40.70
2019-01-25T19:52:21.478Z,45.38
2019-01-25T19:54:47.542Z,43.28
2019-01-25T19:57:13.562Z,42.08
2019-01-25T19:59:39.550Z,45.50
2019-01-25T20:02:05.590Z,44.47
2019-01-25T20:04:31.628Z,45.30
2019-01-25T20:06:57.618Z,39.80
2019-01-25T20:09:23.624Z,40.90
2019-01-25T20:11:49.605Z,47.72
2019-01-25T20:14:15.620Z,42.63
2019-01-25T20:16:41.614Z,42.17
2019-01-25T20:19:07.601Z,41.50
2019-01-25T20:21:33.607Z,42.60
2019-01-25T20:23:59.686Z,44.47
2019-01-25T20:26:25.674Z,42.03
2019-01-25T20:28:51.651Z,45.63
2019-01-25T20:31:17.655Z,42.33
2019-01-25T20:33:43.654Z,40.92
2019-01-25T20:36:09.666Z,48.17
2019-01-25T20:38:35.667Z,38.78
2019-01-25T20:41:01.667Z,40.03
2019-01-25T20:43:27.654Z,46.25
2019-01-25T20:45:53.634Z,46.27
2019-01-25T20:48:20.597Z,46.70
2019-01-25T20:50:45.632Z,42.42
2019-01-25T20:53:11.590Z,44.03
2019-01-25T20:55:37.584Z,39.63
2019-01-25T20:58:03.587Z,40.63
2019-01-25T21:00:31.435Z,48.38
2019-01-25T21:02:57.455Z,44.05
2019-01-25T21:05:23.460Z,45.95
2019-01-25T21:07:49.445Z,46.20
2019-01-25T21:10:15.439Z,43.53
2019-01-25T21:12:41.466Z,43.40
2019-01-25T21:15:07.490Z,43.30
2019-01-25T21:17:33.524Z,43.65
2019-01-25T21:19:59.515Z,41.67
2019-01-25T21:22:25.495Z,51.87
2019-01-25T21:24:51.550Z,47.57
2019-01-25T21:27:17.538Z,46.95
2019-01-25T21:29:44.781Z,53.90
2019-01-25T21:32:09.572Z,52.83
2019-01-25T21:34:35.573Z,46.27
2019-01-25T21:37:01.565Z,50.15
2019-01-25T21:39:27.607Z,46.85
2019-01-25T21:41:53.600Z,47.50
2019-01-25T21:44:19.605Z,48.50
2019-01-25T21:46:45.615Z,43.85
2019-01-25T21:49:11.739Z,47.72
2019-01-25T21:51:39.108Z,51.47
2019-01-25T21:54:03.765Z,55.05
2019-01-25T21:56:29.781Z,46.03
2019-01-25T21:58:55.782Z,45.83
2019-01-25T22:01:21.779Z,48.03
2019-01-25T22:03:47.794Z,51.28
2019-01-25T22:06:13.791Z,47.60
2019-01-25T22:08:39.825Z,46.43
2019-01-25T22:11:05.822Z,46.10
2019-01-25T22:13:31.835Z,55.75
2019-01-25T22:15:57.838Z,39.70
2019-01-25T22:18:23.817Z,42.53
2019-01-25T22:20:49.795Z,47.70
2019-01-25T22:23:17.023Z,40.50
2019-01-25T22:25:41.826Z,48.15
2019-01-25T22:28:07.842Z,43.28
2019-01-25T22:30:33.878Z,48.83
2019-01-25T22:32:59.829Z,42.63
2019-01-25T22:35:25.822Z,38.53
2019-01-25T22:37:53.205Z,46.73
2019-01-25T22:40:18.614Z,40.95
2019-01-25T22:42:44.599Z,39.92
2019-01-25T22:45:18.676Z,39.77
2019-01-25T22:47:44.651Z,45.15
2019-01-25T22:50:15.547Z,39.37
2019-01-25T22:52:41.519Z,37.85
2019-01-25T22:55:07.557Z,39.50
2019-01-25T22:57:33.547Z,36.85
2019-01-25T22:59:59.542Z,42.67
2019-01-25T23:02:25.606Z,37.87
2019-01-25T23:04:54.438Z,39.58
2019-01-25T23:07:20.451Z,39.50
2019-01-25T23:09:46.473Z,37.58
2019-01-25T23:12:12.478Z,42.05
2019-01-25T23:14:38.481Z,38.63
2019-01-25T23:17:04.489Z,43.15
2019-01-25T23:19:30.485Z,39.17
2019-01-25T23:21:56.475Z,40.40
2019-01-25T23:24:22.460Z,43.40
2019-01-25T23:26:48.502Z,38.77
2019-01-25T23:29:14.486Z,42.08
2019-01-25T23:31:40.491Z,42.47
2019-01-25T23:34:06.482Z,49.47
2019-01-25T23:36:32.458Z,38.10
2019-01-25T23:38:58.450Z,47.80
2019-01-25T23:41:24.450Z,36.65
2019-01-25T23:43:50.449Z,41.97
2019-01-25T23:46:16.439Z,38.22
2019-01-25T23:48:42.423Z,36.50
2019-01-25T23:51:08.447Z,42.33
2019-01-25T23:53:34.455Z,36.08
2019-01-25T23:56:00.442Z,40.72
2019-01-25T23:58:26.431Z,38.23
